createdAt,value
2022-09-28T00:01:07.936Z,9.30
2022-09-28T00:03:36.418Z,9.30
2022-09-28T00:06:06.669Z,9.30
2022-09-28T00:08:36.547Z,9.30
2022-09-28T00:11:06.900Z,9.30
2022-09-28T00:13:35.667Z,9.20
2022-09-28T00:16:05.685Z,9.20
2022-09-28T00:18:34.264Z,9.20
2022-09-28T00:21:04.357Z,9.10
2022-09-28T00:23:32.703Z,9.10
2022-09-28T00:26:05.290Z,9.10
2022-09-28T00:28:33.822Z,9.20
2022-09-28T00:31:01.966Z,9.20
2022-09-28T00:33:30.048Z,9.20
2022-09-28T00:35:59.055Z,9.20
2022-09-28T00:38:30.668Z,9.20
2022-09-28T00:40:59.681Z,9.10
2022-09-28T00:43:29.274Z,9.10
2022-09-28T00:46:01.564Z,9.10
2022-09-28T00:48:33.426Z,9.10
2022-09-28T00:51:05.378Z,9.10
2022-09-28T00:53:36.540Z,9.10
2022-09-28T00:56:09.190Z,9.00
2022-09-28T00:58:42.847Z,9.00
2022-09-28T01:01:12.039Z,9.10
2022-09-28T01:03:45.329Z,9.00
2022-09-28T01:06:19.027Z,9.00
2022-09-28T01:08:50.618Z,9.00
2022-09-28T01:11:19.913Z,9.00
2022-09-28T01:13:51.112Z,9.00
2022-09-28T01:16:28.771Z,9.00
2022-09-28T01:19:09.818Z,9.00
2022-09-28T01:21:47.433Z,8.90
2022-09-28T01:24:41.812Z,9.00
2022-09-28T01:27:16.600Z,8.90
2022-09-28T01:29:58.113Z,9.00
2022-09-28T01:32:37.783Z,9.00
2022-09-28T01:35:11.011Z,9.00
2022-09-28T01:37:46.566Z,8.90
2022-09-28T01:40:16.802Z,8.90
2022-09-28T01:42:50.838Z,8.90
2022-09-28T01:45:24.724Z,8.90
2022-09-28T01:47:56.290Z,8.90
2022-09-28T01:50:26.940Z,8.90
2022-09-28T01:53:00.939Z,9.00
2022-09-28T01:55:32.763Z,9.00
2022-09-28T01:58:08.934Z,9.00
2022-09-28T02:00:41.575Z,9.00
2022-09-28T02:03:13.604Z,9.00
2022-09-28T02:05:44.285Z,9.00
2022-09-28T02:08:20.003Z,9.10
2022-09-28T02:10:53.499Z,9.10
2022-09-28T02:13:28.586Z,9.00
2022-09-28T02:16:01.820Z,9.00
2022-09-28T02:18:30.183Z,9.00
2022-09-28T02:21:06.193Z,9.10
2022-09-28T02:23:36.731Z,9.10
2022-09-28T02:26:08.124Z,9.00
2022-09-28T02:28:37.538Z,9.00
2022-09-28T02:31:05.662Z,9.00
2022-09-28T02:33:39.539Z,9.00
2022-09-28T02:36:08.303Z,9.00
2022-09-28T02:38:38.080Z,9.00
2022-09-28T02:41:16.041Z,9.10
2022-09-28T02:43:58.630Z,9.10
2022-09-28T02:46:33.801Z,9.10
2022-09-28T02:49:21.814Z,9.00
2022-09-28T02:52:10.016Z,9.00
2022-09-28T02:54:57.976Z,9.10
2022-09-28T02:57:36.042Z,9.10
2022-09-28T03:00:10.254Z,9.20
2022-09-28T03:02:46.190Z,9.30
2022-09-28T03:05:19.594Z,9.30
2022-09-28T03:07:53.859Z,9.30
2022-09-28T03:10:29.456Z,9.30
2022-09-28T03:12:58.726Z,9.40
2022-09-28T03:15:29.816Z,9.40
2022-09-28T03:17:58.483Z,9.40
2022-09-28T03:20:27.383Z,9.50
2022-09-28T03:23:20.085Z,9.50
2022-09-28T03:25:43.538Z,9.40
2022-09-28T03:28:11.536Z,9.40
2022-09-28T03:30:41.722Z,9.40
2022-09-28T03:33:09.688Z,9.40
2022-09-28T03:35:37.675Z,9.40
2022-09-28T03:38:05.639Z,9.50
2022-09-28T03:40:33.854Z,9.50
2022-09-28T03:43:01.988Z,9.50
2022-09-28T03:45:30.059Z,9.50
2022-09-28T03:48:00.213Z,9.60
2022-09-28T03:50:28.272Z,9.50
2022-09-28T03:52:56.232Z,9.50
2022-09-28T03:55:24.242Z,9.50
2022-09-28T03:57:55.921Z,9.50
2022-09-28T04:00:24.190Z,9.60
2022-09-28T04:02:52.211Z,9.50
2022-09-28T04:05:21.577Z,9.60
2022-09-28T04:07:49.657Z,9.60
2022-09-28T04:10:17.853Z,9.60
2022-09-28T04:12:45.981Z,9.60
2022-09-28T04:15:14.070Z,9.60
2022-09-28T04:17:42.258Z,9.60
2022-09-28T04:20:10.668Z,9.60
2022-09-28T04:22:40.048Z,9.60
2022-09-28T04:25:08.531Z,9.60
2022-09-28T04:27:54.196Z,9.60
2022-09-28T04:30:22.308Z,9.50
2022-09-28T04:32:50.662Z,9.50
2022-09-28T04:35:18.707Z,9.50
2022-09-28T04:37:48.030Z,9.60
2022-09-28T04:40:16.291Z,9.60
2022-09-28T04:42:44.344Z,9.60
2022-09-28T04:45:12.394Z,9.50
2022-09-28T04:47:40.374Z,9.50
2022-09-28T04:50:09.227Z,9.50
2022-09-28T04:52:37.923Z,9.50
2022-09-28T04:55:08.191Z,9.50
2022-09-28T04:57:36.362Z,9.50
2022-09-28T05:00:05.546Z,9.50
2022-09-28T05:02:33.759Z,9.50
2022-09-28T05:05:01.783Z,9.60
2022-09-28T05:07:31.269Z,9.60
2022-09-28T05:10:01.541Z,9.50
2022-09-28T05:12:30.895Z,9.60
2022-09-28T05:14:58.962Z,9.50
2022-09-28T05:17:27.051Z,9.50
2022-09-28T05:19:56.148Z,9.60
2022-09-28T05:22:24.234Z,9.50
2022-09-28T05:24:52.178Z,9.50
2022-09-28T05:27:20.174Z,9.40
2022-09-28T05:29:49.483Z,9.40
2022-09-28T05:32:17.883Z,9.40
2022-09-28T05:34:45.838Z,9.40
2022-09-28T05:37:13.830Z,9.40
2022-09-28T05:39:41.892Z,9.30
2022-09-28T05:42:09.868Z,9.30
2022-09-28T05:44:38.485Z,9.30
2022-09-28T05:47:07.899Z,9.30
2022-09-28T05:49:35.953Z,9.20
2022-09-28T05:52:04.071Z,9.20
2022-09-28T05:54:32.035Z,9.20
2022-09-28T05:57:00.096Z,9.10
2022-09-28T05:59:30.195Z,9.20
2022-09-28T06:01:58.369Z,9.20
2022-09-28T06:04:29.026Z,9.20
2022-09-28T06:06:57.252Z,9.20
2022-09-28T06:09:26.050Z,9.30
2022-09-28T06:11:54.453Z,9.30
2022-09-28T06:14:22.684Z,9.30
2022-09-28T06:16:51.024Z,9.30
2022-09-28T06:19:19.456Z,9.30
2022-09-28T06:21:48.936Z,9.40
2022-09-28T06:24:17.223Z,9.50
2022-09-28T06:26:45.322Z,9.60
2022-09-28T06:29:18.689Z,9.70
2022-09-28T06:31:48.039Z,9.70
2022-09-28T06:34:16.073Z,9.90
2022-09-28T06:36:44.129Z,10.20
2022-09-28T06:39:13.455Z,10.30
2022-09-28T06:41:42.238Z,10.20
2022-09-28T06:44:10.306Z,10.20
2022-09-28T06:46:40.227Z,10.50
2022-09-28T06:49:09.293Z,11.00
2022-09-28T06:51:37.763Z,11.00
2022-09-28T06:54:05.823Z,11.30
2022-09-28T06:56:35.194Z,11.30
2022-09-28T06:59:03.170Z,11.50
2022-09-28T07:01:31.351Z,11.20
2022-09-28T07:04:01.852Z,10.90
2022-09-28T07:06:31.027Z,10.60
2022-09-28T07:09:18.408Z,10.70
2022-09-28T07:11:52.738Z,10.70
2022-09-28T07:14:43.639Z,10.60
2022-09-28T07:17:14.251Z,11.00
2022-09-28T07:19:42.753Z,11.40
2022-09-28T07:22:18.480Z,11.40
2022-09-28T07:24:48.288Z,11.30
2022-09-28T07:27:18.032Z,11.20
2022-09-28T07:29:45.986Z,11.10
2022-09-28T07:32:13.969Z,11.10
2022-09-28T07:34:44.028Z,11.10
2022-09-28T07:37:12.542Z,11.20
2022-09-28T07:39:54.769Z,11.30
2022-09-28T07:42:24.190Z,11.40
2022-09-28T07:44:52.396Z,11.40
2022-09-28T07:47:29.620Z,11.40
2022-09-28T07:50:00.810Z,11.30
2022-09-28T07:52:29.035Z,11.30
2022-09-28T07:54:57.743Z,11.30
2022-09-28T07:57:27.219Z,11.30
2022-09-28T07:59:55.739Z,11.30
2022-09-28T08:02:24.449Z,11.30
2022-09-28T08:04:52.497Z,11.30
2022-09-28T08:07:23.910Z,11.30
2022-09-28T08:09:52.656Z,11.10
2022-09-28T08:12:21.196Z,11.00
2022-09-28T08:14:52.217Z,10.80
2022-09-28T08:17:20.238Z,10.80
2022-09-28T08:20:05.576Z,10.90
2022-09-28T08:22:33.957Z,11.00
2022-09-28T08:25:01.905Z,11.10
2022-09-28T08:27:29.919Z,11.10
2022-09-28T08:29:59.250Z,11.10
2022-09-28T08:32:27.248Z,11.00
2022-09-28T08:34:56.032Z,11.00
2022-09-28T08:37:24.059Z,11.00
2022-09-28T08:39:52.210Z,11.00
2022-09-28T08:42:34.055Z,11.10
2022-09-28T08:45:09.354Z,11.20
2022-09-28T08:48:03.458Z,11.20
2022-09-28T08:50:34.731Z,11.20
2022-09-28T08:53:14.401Z,11.10
2022-09-28T08:55:45.271Z,11.10
2022-09-28T08:58:16.115Z,11.20
2022-09-28T09:00:48.673Z,11.20
2022-09-28T09:03:21.236Z,11.30
2022-09-28T09:06:04.440Z,11.40
2022-09-28T09:08:49.261Z,11.50
2022-09-28T09:11:29.934Z,11.60
2022-09-28T09:14:48.704Z,11.60
2022-09-28T09:17:27.757Z,11.80
2022-09-28T09:19:59.694Z,12.00
2022-09-28T09:22:40.056Z,12.00
2022-09-28T09:25:19.235Z,11.90
2022-09-28T09:28:02.123Z,11.90
2022-09-28T09:30:37.067Z,11.90
2022-09-28T09:33:28.315Z,11.80
2022-09-28T09:36:12.147Z,11.90
2022-09-28T09:38:52.974Z,12.10
2022-09-28T09:41:32.045Z,12.10
2022-09-28T09:44:15.275Z,12.20
2022-09-28T09:46:47.682Z,12.20
2022-09-28T09:49:21.773Z,12.20
2022-09-28T09:51:56.718Z,12.50
2022-09-28T09:54:31.182Z,12.60
2022-09-28T09:57:04.405Z,12.60
2022-09-28T09:59:35.952Z,12.50
2022-09-28T10:02:11.982Z,12.30
2022-09-28T10:04:46.925Z,12.40
2022-09-28T10:07:23.360Z,12.30
2022-09-28T10:09:53.708Z,12.40
2022-09-28T10:12:24.584Z,12.30
2022-09-28T10:14:53.150Z,12.20
2022-09-28T10:17:26.829Z,12.00
2022-09-28T10:19:57.074Z,12.00
2022-09-28T10:22:28.335Z,12.10
2022-09-28T10:24:58.380Z,12.20
2022-09-28T10:27:28.953Z,12.30
2022-09-28T10:30:01.106Z,12.30
2022-09-28T10:32:38.254Z,12.40
2022-09-28T10:35:22.642Z,12.40
2022-09-28T10:37:54.250Z,12.50
2022-09-28T10:40:30.452Z,12.50
2022-09-28T10:43:07.229Z,12.60
2022-09-28T10:45:37.917Z,12.50
2022-09-28T10:48:08.365Z,12.60
2022-09-28T10:50:39.176Z,12.60
2022-09-28T10:53:19.485Z,12.60
2022-09-28T10:55:59.678Z,12.60
2022-09-28T10:58:30.418Z,12.60
2022-09-28T11:01:04.579Z,12.80
2022-09-28T11:03:33.115Z,12.90
2022-09-28T11:06:04.810Z,12.90
2022-09-28T11:08:39.851Z,13.00
2022-09-28T11:11:12.548Z,13.10
2022-09-28T11:13:46.720Z,13.10
2022-09-28T11:16:36.349Z,13.10
2022-09-28T11:19:07.955Z,13.20
2022-09-28T11:21:46.246Z,13.20
2022-09-28T11:24:22.151Z,13.20
2022-09-28T11:26:53.476Z,13.10
2022-09-28T11:29:26.798Z,13.00
2022-09-28T11:32:00.110Z,12.90
2022-09-28T11:34:57.597Z,12.80
2022-09-28T11:37:40.234Z,13.00
2022-09-28T11:40:21.339Z,13.20
2022-09-28T11:43:01.815Z,13.20
2022-09-28T11:45:41.864Z,13.30
2022-09-28T11:48:12.255Z,13.30
2022-09-28T11:50:47.209Z,13.10
2022-09-28T11:53:23.588Z,12.90
2022-09-28T11:55:58.434Z,12.90
2022-09-28T11:58:31.586Z,12.80
2022-09-28T12:01:06.038Z,12.80
2022-09-28T12:03:40.612Z,12.80
2022-09-28T12:06:15.649Z,12.50
2022-09-28T12:08:51.905Z,12.60
2022-09-28T12:11:26.308Z,12.50
2022-09-28T12:13:57.662Z,12.60
2022-09-28T12:17:05.025Z,12.50
2022-09-28T12:19:23.537Z,12.50
2022-09-28T12:21:54.256Z,12.30
2022-09-28T12:24:28.791Z,12.20
2022-09-28T12:27:01.556Z,12.10
2022-09-28T12:29:33.664Z,12.10
2022-09-28T12:32:10.606Z,12.30
2022-09-28T12:34:38.627Z,12.50
2022-09-28T12:37:19.411Z,12.80
2022-09-28T12:40:10.769Z,13.10
2022-09-28T12:42:58.666Z,13.30
2022-09-28T12:46:09.815Z,13.30
2022-09-28T12:48:56.652Z,13.30
2022-09-28T12:51:45.170Z,13.20
2022-09-28T12:54:28.140Z,13.10
2022-09-28T12:57:17.150Z,13.20
2022-09-28T13:00:01.139Z,13.10
2022-09-28T13:02:43.433Z,13.00
2022-09-28T13:05:25.485Z,13.00
2022-09-28T13:08:03.611Z,12.90
2022-09-28T13:10:36.641Z,12.80
2022-09-28T13:13:20.891Z,12.60
2022-09-28T13:15:56.380Z,12.30
2022-09-28T13:18:29.353Z,12.20
2022-09-28T13:21:08.108Z,12.20
2022-09-28T13:23:40.495Z,12.40
2022-09-28T13:26:21.502Z,12.50
2022-09-28T13:28:54.623Z,12.60
2022-09-28T13:31:31.869Z,12.50
2022-09-28T13:34:03.350Z,12.60
2022-09-28T13:36:40.466Z,12.70
2022-09-28T13:39:38.299Z,12.50
2022-09-28T13:42:09.380Z,12.50
2022-09-28T13:45:10.235Z,12.50
2022-09-28T13:48:06.069Z,12.60
2022-09-28T13:50:43.905Z,12.70
2022-09-28T13:53:23.239Z,12.70
2022-09-28T13:55:58.445Z,12.90
2022-09-28T13:58:29.301Z,12.90
2022-09-28T14:01:02.578Z,13.00
2022-09-28T14:03:44.614Z,12.90
2022-09-28T14:06:27.514Z,12.90
2022-09-28T14:09:10.814Z,13.00
2022-09-28T14:11:44.080Z,13.10
2022-09-28T14:14:48.480Z,13.20
2022-09-28T14:17:59.375Z,13.30
2022-09-28T14:20:31.456Z,13.40
2022-09-28T14:23:32.067Z,13.40
2022-09-28T14:26:45.961Z,13.60
2022-09-28T14:29:27.855Z,13.70
2022-09-28T14:31:58.274Z,13.70
2022-09-28T14:34:34.369Z,13.80
2022-09-28T14:37:21.863Z,13.80
2022-09-28T14:40:07.838Z,13.80
2022-09-28T14:42:35.802Z,13.60
2022-09-28T14:45:34.822Z,13.40
2022-09-28T14:48:23.489Z,13.10
2022-09-28T14:50:55.767Z,13.10
2022-09-28T14:53:25.598Z,13.10
2022-09-28T14:55:58.813Z,13.00
2022-09-28T14:58:30.047Z,13.10
2022-09-28T15:01:03.730Z,13.00
2022-09-28T15:03:35.210Z,13.10
2022-09-28T15:06:04.582Z,13.00
2022-09-28T15:08:40.190Z,13.00
2022-09-28T15:11:14.873Z,13.00
2022-09-28T15:13:43.870Z,13.00
2022-09-28T15:16:14.254Z,13.00
2022-09-28T15:19:10.408Z,13.00
2022-09-28T15:21:42.090Z,13.00
2022-09-28T15:24:27.664Z,12.90
2022-09-28T15:26:56.759Z,13.00
2022-09-28T15:29:27.231Z,12.90
2022-09-28T15:31:55.215Z,12.90
2022-09-28T15:34:48.475Z,12.90
2022-09-28T15:37:21.875Z,12.80
2022-09-28T15:39:51.069Z,12.70
2022-09-28T15:42:20.252Z,12.70
2022-09-28T15:45:04.172Z,12.60
2022-09-28T15:47:32.983Z,12.60
2022-09-28T15:50:03.847Z,12.60
2022-09-28T15:52:38.330Z,12.60
2022-09-28T15:55:19.943Z,12.50
2022-09-28T15:57:48.482Z,12.50
2022-09-28T16:00:29.257Z,12.50
2022-09-28T16:03:23.386Z,12.50
2022-09-28T16:05:53.253Z,12.40
2022-09-28T16:08:25.527Z,12.40
2022-09-28T16:10:58.707Z,12.40
2022-09-28T16:13:27.504Z,12.40
2022-09-28T16:15:59.909Z,12.40
2022-09-28T16:18:29.704Z,12.30
2022-09-28T16:21:11.855Z,12.30
2022-09-28T16:23:42.045Z,12.30
2022-09-28T16:26:18.055Z,12.30
2022-09-28T16:28:51.964Z,12.30
2022-09-28T16:31:29.987Z,12.30
2022-09-28T16:34:01.193Z,12.20
2022-09-28T16:36:39.643Z,12.20
2022-09-28T16:39:11.457Z,12.10
2022-09-28T16:41:41.261Z,12.10
2022-09-28T16:44:17.865Z,12.10
2022-09-28T16:46:46.612Z,12.10
2022-09-28T16:49:19.289Z,12.10
2022-09-28T16:51:48.373Z,12.10
2022-09-28T16:54:38.435Z,12.10
2022-09-28T16:57:08.159Z,12.10
2022-09-28T16:59:38.419Z,12.00
2022-09-28T17:05:08.136Z,12.00
2022-09-28T17:07:36.481Z,12.00
2022-09-28T17:10:16.762Z,11.90
2022-09-28T17:12:44.941Z,11.90
2022-09-28T17:15:16.533Z,11.90
2022-09-28T17:17:44.542Z,11.90
2022-09-28T17:20:22.611Z,11.90
2022-09-28T17:22:50.660Z,11.90
2022-09-28T17:25:20.390Z,11.90
2022-09-28T17:27:50.457Z,11.90
2022-09-28T17:30:23.499Z,11.80
2022-09-28T17:32:53.441Z,11.80
2022-09-28T17:35:25.548Z,11.70
2022-09-28T17:37:54.438Z,11.70
2022-09-28T17:40:28.409Z,11.70
2022-09-28T17:42:57.609Z,11.70
2022-09-28T17:45:27.050Z,11.70
2022-09-28T17:47:55.577Z,11.70
2022-09-28T17:50:25.810Z,11.70
2022-09-28T17:52:55.038Z,11.60
2022-09-28T17:55:28.550Z,11.50
2022-09-28T17:57:57.374Z,11.50
2022-09-28T18:00:27.478Z,11.50
2022-09-28T18:02:56.033Z,11.50
2022-09-28T18:05:25.142Z,11.50
2022-09-28T18:07:53.663Z,11.40
2022-09-28T18:10:24.622Z,11.40
2022-09-28T18:12:52.621Z,11.40
2022-09-28T18:15:20.646Z,11.40
2022-09-28T18:17:48.664Z,11.40
2022-09-28T18:20:16.681Z,11.30
2022-09-28T18:22:44.678Z,11.30
2022-09-28T18:25:12.647Z,11.30
2022-09-28T18:27:42.169Z,11.30
2022-09-28T18:30:10.823Z,11.30
2022-09-28T18:32:39.002Z,11.30
2022-09-28T18:35:08.794Z,11.20
2022-09-28T18:37:37.514Z,11.20
2022-09-28T18:40:06.280Z,11.20
2022-09-28T18:42:35.639Z,11.10
2022-09-28T18:45:05.796Z,11.10
2022-09-28T18:47:34.715Z,11.10
2022-09-28T18:50:02.699Z,11.10
2022-09-28T18:52:30.798Z,11.00
2022-09-28T18:54:58.767Z,11.00
2022-09-28T18:57:27.853Z,11.00
2022-09-28T18:59:55.801Z,11.00
2022-09-28T19:02:25.277Z,11.00
2022-09-28T19:04:53.859Z,11.00
2022-09-28T19:07:22.299Z,11.00
2022-09-28T19:09:51.321Z,11.00
2022-09-28T19:12:19.328Z,10.90
2022-09-28T19:14:47.394Z,10.90
2022-09-28T19:17:15.378Z,10.90
2022-09-28T19:19:45.016Z,10.90
2022-09-28T19:22:13.607Z,10.80
2022-09-28T19:24:41.637Z,10.80
2022-09-28T19:27:09.663Z,10.80
2022-09-28T19:29:37.659Z,10.80
2022-09-28T19:32:05.714Z,10.70
2022-09-28T19:34:33.734Z,10.70
2022-09-28T19:37:04.021Z,10.70
2022-09-28T19:39:32.435Z,10.60
2022-09-28T19:42:01.240Z,10.60
2022-09-28T19:44:32.386Z,10.50
2022-09-28T19:47:04.781Z,10.40
2022-09-28T19:49:36.791Z,10.40
2022-09-28T19:52:14.241Z,10.30
2022-09-28T19:54:44.938Z,10.20
2022-09-28T19:57:15.926Z,10.20
2022-09-28T19:59:44.196Z,10.20
2022-09-28T20:02:13.346Z,10.10
2022-09-28T20:04:41.457Z,10.10
2022-09-28T20:07:11.009Z,10.10
2022-09-28T20:09:39.032Z,10.10
2022-09-28T20:12:07.091Z,10.10
2022-09-28T20:14:38.311Z,10.10
2022-09-28T20:17:08.524Z,10.10
2022-09-28T20:19:36.599Z,10.00
2022-09-28T20:22:04.988Z,10.00
2022-09-28T20:24:34.403Z,10.00
2022-09-28T20:27:02.873Z,9.90
2022-09-28T20:29:33.535Z,9.80
2022-09-28T20:32:02.202Z,9.80
2022-09-28T20:34:30.460Z,9.70
2022-09-28T20:36:58.513Z,9.60
2022-09-28T20:39:26.604Z,9.60
2022-09-28T20:41:56.075Z,9.50
2022-09-28T20:44:24.143Z,9.40
2022-09-28T20:46:52.505Z,9.40
2022-09-28T20:49:20.530Z,9.30
2022-09-28T20:51:48.527Z,9.20
2022-09-28T20:54:16.650Z,9.20
2022-09-28T20:56:44.793Z,9.20
2022-09-28T20:59:14.394Z,9.10
2022-09-28T21:01:42.440Z,9.10
2022-09-28T21:04:11.745Z,9.00
2022-09-28T21:06:41.470Z,9.00
2022-09-28T21:09:11.346Z,9.00
2022-09-28T21:11:40.250Z,9.00
2022-09-28T21:14:09.669Z,9.00
2022-09-28T21:16:39.409Z,9.10
2022-09-28T21:19:07.581Z,9.00
2022-09-28T21:21:35.675Z,9.00
2022-09-28T21:24:03.791Z,8.90
2022-09-28T21:26:32.843Z,8.90
2022-09-28T21:29:02.979Z,8.80
2022-09-28T21:31:33.658Z,8.80
2022-09-28T21:34:04.632Z,8.70
2022-09-28T21:36:33.282Z,8.70
2022-09-28T21:39:01.323Z,8.60
2022-09-28T21:41:29.735Z,8.50
2022-09-28T21:43:57.811Z,8.50
2022-09-28T21:46:26.812Z,8.40
2022-09-28T21:48:54.979Z,8.40
2022-09-28T21:51:24.537Z,8.40
2022-09-28T21:53:54.088Z,8.30
2022-09-28T21:56:23.029Z,8.30
2022-09-28T21:58:51.105Z,8.20
2022-09-28T22:01:20.734Z,8.30
2022-09-28T22:03:50.554Z,8.20
2022-09-28T22:06:19.966Z,8.10
2022-09-28T22:08:50.589Z,8.10
2022-09-28T22:11:20.746Z,8.00
2022-09-28T22:13:50.435Z,8.00
2022-09-28T22:16:20.784Z,7.90
2022-09-28T22:18:48.935Z,7.90
2022-09-28T22:21:18.570Z,7.90
2022-09-28T22:23:46.949Z,7.90
2022-09-28T22:26:19.102Z,7.90
2022-09-28T22:28:49.516Z,8.00
2022-09-28T22:31:19.621Z,7.90
2022-09-28T22:33:47.768Z,7.90
2022-09-28T22:36:17.048Z,7.90
2022-09-28T22:38:45.851Z,7.90
2022-09-28T22:41:15.891Z,7.90
2022-09-28T22:43:45.434Z,7.90
2022-09-28T22:46:15.335Z,7.90
2022-09-28T22:48:47.179Z,7.80
2022-09-28T22:51:15.688Z,7.80
2022-09-28T22:53:44.106Z,7.80
2022-09-28T22:56:17.486Z,7.80
2022-09-28T22:58:48.053Z,7.70
2022-09-28T23:01:18.577Z,7.70
2022-09-28T23:03:47.259Z,7.70
2022-09-28T23:06:17.603Z,7.70
2022-09-28T23:08:47.253Z,7.60
2022-09-28T23:11:15.637Z,7.60
2022-09-28T23:13:44.167Z,7.50
2022-09-28T23:16:14.964Z,7.40
2022-09-28T23:18:43.638Z,7.30
2022-09-28T23:21:13.434Z,7.30
2022-09-28T23:23:41.801Z,7.30
2022-09-28T23:26:14.174Z,7.30
2022-09-28T23:28:42.399Z,7.30
2022-09-28T23:31:12.094Z,7.20
2022-09-28T23:33:41.667Z,7.10
2022-09-28T23:36:10.184Z,7.00
2022-09-28T23:38:38.447Z,7.00
2022-09-28T23:41:06.723Z,7.00
2022-09-28T23:43:36.136Z,7.00
2022-09-28T23:46:04.914Z,6.90
2022-09-28T23:48:33.074Z,6.90
2022-09-28T23:51:02.851Z,6.90
2022-09-28T23:53:32.259Z,6.80
2022-09-28T23:56:00.323Z,6.80
2022-09-28T23:58:28.609Z,6.80
